Time,TemperatureF,DewpointF,PressureIn,WindDirection,WindDirectionDegrees,WindSpeedMPH,WindSpeedGustMPH,Humidity,HourlyPrecipIn,Conditions,Clouds,dailyrainin,SolarRadiationWatts/m^2,SoftwareType,DateUTC
2013-12-02 00:02:00,62.8,60.7,29.96,SE,146,2.3,2.3,93,0.00,CLR,SKC,0.00,0.0,WeatherDisplay:10.37,2013-12-02 06:02:00,
2013-12-02 00:07:00,62.6,60.5,29.96,SE,136,2.3,2.3,93,0.00,CLR,SKC,0.00,0.0,WeatherDisplay:10.37,2013-12-02 06:07:00,
2013-12-02 00:12:00,62.6,60.5,29.95,WNW,285,3.5,3.5,93,0.00,CLR,SKC,0.00,0.0,WeatherDisplay:10.37,2013-12-02 06:12:00,
2013-12-02 00:17:00,62.6,60.5,29.95,SW,234,3.5,3.5,93,0.00,CLR,SKC,0.00,0.0,WeatherDisplay:10.37,2013-12-02 06:17:00,
2013-12-02 00:22:00,62.6,60.5,29.95,SW,215,3.5,3.5,93,0.00,CLR,SKC,0.00,0.0,WeatherDisplay:10.37,2013-12-02 06:22:00,
2013-12-02 00:27:00,62.7,60.9,29.94,South,175,1.2,0.0,94,0.00,CLR,SKC,0.00,0.0,WeatherDisplay:10.37,2013-12-02 06:27:00,
2013-12-02 00:32:00,62.8,61.0,29.94,East,92,1.2,0.0,94,0.00,CLR,SKC,0.00,0.0,WeatherDisplay:10.37,2013-12-02 06:32:00,
2013-12-02 00:37:00,62.9,61.1,29.94,ESE,109,1.2,0.0,94,0.00,CLR,SKC,0.00,0.0,WeatherDisplay:10.37,2013-12-02 06:37:00,
2013-12-02 00:42:00,62.9,61.1,29.94,South,184,1.2,1.2,94,0.00,CLR,SKC,0.00,0.0,WeatherDisplay:10.37,2013-12-02 06:42:00,
2013-12-02 00:47:00,63.1,61.3,29.94,WSW,248,1.2,0.0,94,0.00,CLR,SKC,0.00,0.0,WeatherDisplay:10.37,2013-12-02 06:47:00,
2013-12-02 00:52:00,63.1,61.3,29.94,West,266,1.2,0.0,94,0.00,CLR,SKC,0.00,0.0,WeatherDisplay:10.37,2013-12-02 06:52:00,
2013-12-02 00:57:00,63.1,61.3,29.94,South,177,1.0,0.0,94,0.00,CLR,SKC,0.00,0.0,WeatherDisplay:10.37,2013-12-02 06:57:00,
2013-12-02 01:02:00,63.2,61.4,29.94,SSW,193,1.2,1.2,94,0.00,CLR,SKC,0.00,0.0,WeatherDisplay:10.37,2013-12-02 07:02:00,
2013-12-02 01:07:00,63.2,61.4,29.94,South,173,3.5,0.0,94,0.00,CLR,SKC,0.00,0.0,WeatherDisplay:10.37,2013-12-02 07:07:00,
2013-12-02 01:12:00,63.1,61.3,29.93,SSW,205,3.5,3.5,94,0.00,CLR,SKC,0.00,0.0,WeatherDisplay:10.37,2013-12-02 07:12:00,
2013-12-02 01:17:00,63.1,61.3,29.93,SE,136,2.3,2.3,94,0.00,CLR,SKC,0.00,0.0,WeatherDisplay:10.37,2013-12-02 07:17:00,
2013-12-02 01:22:00,63.2,61.4,29.93,South,171,1.2,1.2,94,0.00,CLR,SKC,0.00,0.0,WeatherDisplay:10.37,2013-12-02 07:22:00,
2013-12-02 01:27:00,63.2,61.4,29.92,WNW,296,2.0,2.0,94,0.00,CLR,SKC,0.00,0.0,WeatherDisplay:10.37,2013-12-02 07:27:00,
2013-12-02 01:32:00,63.2,61.4,29.92,South,179,2.3,2.3,94,0.00,CLR,SKC,0.00,0.0,WeatherDisplay:10.37,2013-12-02 07:32:00,
2013-12-02 01:37:00,63.1,61.3,29.92,SSW,194,3.5,3.5,94,0.00,CLR,SKC,0.00,0.0,WeatherDisplay:10.37,2013-12-02 07:37:00,
2013-12-02 01:42:00,63.1,61.3,29.92,West,260,1.2,0.0,94,0.00,CLR,SKC,0.00,0.0,WeatherDisplay:10.37,2013-12-02 07:42:00,
2013-12-02 01:47:00,63.1,61.3,29.92,SSW,195,1.2,0.0,94,0.00,CLR,SKC,0.00,0.0,WeatherDisplay:10.37,2013-12-02 07:47:00,
2013-12-02 01:52:00,63.1,61.3,29.92,SSW,199,1.2,1.2,94,0.00,CLR,SKC,0.00,0.0,WeatherDisplay:10.37,2013-12-02 07:52:00,
2013-12-02 01:57:00,63.1,61.3,29.92,South,184,1.2,0.0,94,0.00,CLR,SKC,0.00,0.0,WeatherDisplay:10.37,2013-12-02 07:57:00,
2013-12-02 02:02:00,63.0,61.2,29.92,SW,221,1.2,0.0,94,0.00,CLR,SKC,0.00,0.0,WeatherDisplay:10.37,2013-12-02 08:02:00,
2013-12-02 02:07:00,63.0,61.2,29.92,SW,221,1.2,0.0,94,0.00,CLR,SKC,0.00,0.0,WeatherDisplay:10.37,2013-12-02 08:07:00,
2013-12-02 02:12:00,63.0,61.2,29.92,SW,219,0.0,0.0,94,0.00,CLR,SKC,0.00,0.0,WeatherDisplay:10.37,2013-12-02 08:12:00,
2013-12-02 02:17:00,62.9,61.1,29.92,SSE,154,2.3,2.3,94,0.00,CLR,SKC,0.00,0.0,WeatherDisplay:10.37,2013-12-02 08:17:00,
2013-12-02 02:22:00,62.9,61.1,29.92,SE,129,0.0,0.0,94,0.00,CLR,SKC,0.00,0.0,WeatherDisplay:10.37,2013-12-02 08:22:00,
2013-12-02 02:27:00,62.8,61.0,29.91,SSE,161,0.0,0.0,94,0.00,CLR,SKC,0.00,0.0,WeatherDisplay:10.37,2013-12-02 08:27:00,
2013-12-02 02:32:00,62.8,61.0,29.91,South,187,0.0,0.0,94,0.00,CLR,SKC,0.00,0.0,WeatherDisplay:10.37,2013-12-02 08:32:00,
2013-12-02 02:37:00,62.7,60.9,29.91,SW,234,1.2,0.0,94,0.00,CLR,SKC,0.00,0.0,WeatherDisplay:10.37,2013-12-02 08:37:00,
2013-12-02 02:42:00,62.6,60.8,29.90,ESE,114,1.2,0.0,94,0.00,CLR,SKC,0.00,0.0,WeatherDisplay:10.37,2013-12-02 08:42:00,
2013-12-02 02:47:00,62.5,60.7,29.90,SE,128,2.3,2.3,94,0.00,CLR,SKC,0.00,0.0,WeatherDisplay:10.37,2013-12-02 08:47:00,
2013-12-02 02:52:00,62.5,60.7,29.90,SSW,192,1.2,1.2,94,0.00,CLR,SKC,0.00,0.0,WeatherDisplay:10.37,2013-12-02 08:52:00,
2013-12-02 02:57:00,62.5,60.7,29.90,SSW,195,0.0,0.0,94,0.00,CLR,SKC,0.00,0.0,WeatherDisplay:10.37,2013-12-02 08:57:00,
2013-12-02 03:02:00,62.4,60.7,29.90,SSW,198,0.0,0.0,94,0.00,CLR,SKC,0.00,0.0,WeatherDisplay:10.37,2013-12-02 09:02:00,
2013-12-02 03:07:00,62.4,60.7,29.90,SSW,198,0.0,0.0,94,0.00,CLR,SKC,0.00,0.0,WeatherDisplay:10.37,2013-12-02 09:07:00,
2013-12-02 03:12:00,62.3,60.6,29.91,SSW,198,0.0,0.0,94,0.00,CLR,SKC,0.00,0.0,WeatherDisplay:10.37,2013-12-02 09:12:00,
2013-12-02 03:17:00,62.5,61.0,29.91,SSW,208,0.0,0.0,95,0.00,CLR,SKC,0.00,0.0,WeatherDisplay:10.37,2013-12-02 09:17:00,
2013-12-02 03:22:00,62.7,61.2,29.91,SSW,208,0.0,0.0,95,0.00,CLR,SKC,0.00,0.0,WeatherDisplay:10.37,2013-12-02 09:22:00,
2013-12-02 03:27:00,62.7,61.2,29.90,SSW,209,2.3,2.3,95,0.00,CLR,SKC,0.00,0.0,WeatherDisplay:10.37,2013-12-02 09:27:00,
2013-12-02 03:32:00,62.6,60.8,29.90,SW,224,2.3,2.3,94,0.00,CLR,SKC,0.00,0.0,WeatherDisplay:10.37,2013-12-02 09:32:00,
2013-12-02 03:37:00,62.3,60.6,29.90,SW,224,0.0,0.0,94,0.00,CLR,SKC,0.00,0.0,WeatherDisplay:10.37,2013-12-02 09:37:00,
2013-12-02 03:42:00,62.0,60.3,29.89,SW,225,0.0,0.0,94,0.00,CLR,SKC,0.00,0.0,WeatherDisplay:10.37,2013-12-02 09:42:00,
2013-12-02 03:47:00,61.7,60.0,29.89,SW,225,0.0,0.0,94,0.00,CLR,SKC,0.00,0.0,WeatherDisplay:10.37,2013-12-02 09:47:00,
2013-12-02 03:52:00,61.5,59.8,29.89,SW,224,0.0,0.0,94,0.00,CLR,SKC,0.00,0.0,WeatherDisplay:10.37,2013-12-02 09:52:00,
2013-12-02 03:57:00,61.3,59.6,29.89,SW,224,0.0,0.1,94,0.00,CLR,SKC,0.00,0.0,WeatherDisplay:10.37,2013-12-02 09:57:00,
2013-12-02 04:02:00,61.3,59.6,29.89,SW,224,0.0,0.0,94,0.00,CLR,SKC,0.00,0.0,WeatherDisplay:10.37,2013-12-02 10:02:00,
2013-12-02 04:07:00,61.1,59.4,29.89,SW,224,0.0,0.0,94,0.00,CLR,SKC,0.00,0.0,WeatherDisplay:10.37,2013-12-02 10:07:00,
2013-12-02 04:12:00,61.1,59.7,29.89,SW,224,0.0,0.0,95,0.00,CLR,SKC,0.00,0.0,WeatherDisplay:10.37,2013-12-02 10:12:00,
2013-12-02 04:17:00,61.2,59.8,29.89,SW,224,0.0,0.0,95,0.00,CLR,SKC,0.00,0.0,WeatherDisplay:10.37,2013-12-02 10:17:00,
2013-12-02 04:22:00,61.2,59.8,29.89,SW,224,0.0,0.0,95,0.00,CLR,SKC,0.00,0.0,WeatherDisplay:10.37,2013-12-02 10:22:00,
2013-12-02 04:27:00,61.2,59.8,29.88,SW,224,0.0,0.0,95,0.00,CLR,SKC,0.00,0.0,WeatherDisplay:10.37,2013-12-02 10:27:00,
2013-12-02 04:32:00,61.2,59.8,29.88,SW,224,2.3,2.3,95,0.00,CLR,SKC,0.00,0.0,WeatherDisplay:10.37,2013-12-02 10:32:00,
2013-12-02 04:37:00,61.1,59.7,29.88,SW,224,1.2,0.0,95,0.00,CLR,SKC,0.00,0.0,WeatherDisplay:10.37,2013-12-02 10:37:00,
2013-12-02 04:42:00,61.1,59.7,29.88,SW,224,0.0,0.0,95,0.00,CLR,SKC,0.00,0.0,WeatherDisplay:10.37,2013-12-02 10:42:00,
2013-12-02 04:47:00,61.1,59.7,29.88,SW,224,0.0,0.0,95,0.00,CLR,SKC,0.00,0.0,WeatherDisplay:10.37,2013-12-02 10:47:00,
2013-12-02 04:52:00,61.0,59.6,29.88,SW,224,0.0,0.0,95,0.00,CLR,SKC,0.00,0.0,WeatherDisplay:10.37,2013-12-02 10:52:00,
2013-12-02 04:57:00,60.9,59.5,29.87,SW,224,0.0,0.0,95,0.00,CLR,SKC,0.00,0.0,WeatherDisplay:10.37,2013-12-02 10:57:00,
2013-12-02 05:02:00,60.8,59.4,29.87,SW,224,0.0,0.0,95,0.00,CLR,SKC,0.00,0.0,WeatherDisplay:10.37,2013-12-02 11:02:00,
2013-12-02 05:07:00,60.6,59.2,29.87,SW,224,0.0,0.0,95,0.00,CLR,SKC,0.00,0.0,WeatherDisplay:10.37,2013-12-02 11:07:00,
2013-12-02 05:12:00,60.4,59.0,29.87,SW,224,0.0,0.0,95,0.00,CLR,SKC,0.00,0.0,WeatherDisplay:10.37,2013-12-02 11:12:00,
2013-12-02 05:17:00,60.3,58.9,29.87,SW,224,0.0,0.0,95,0.00,CLR,SKC,0.00,0.0,WeatherDisplay:10.37,2013-12-02 11:17:00,
2013-12-02 05:22:00,60.2,58.8,29.87,SW,224,0.0,0.0,95,0.00,CLR,SKC,0.00,0.0,WeatherDisplay:10.37,2013-12-02 11:22:00,
2013-12-02 05:27:00,60.2,58.8,29.87,SW,224,0.0,0.0,95,0.00,CLR,SKC,0.00,0.0,WeatherDisplay:10.37,2013-12-02 11:27:00,
2013-12-02 05:32:00,60.1,58.7,29.87,SW,224,0.0,0.0,95,0.00,CLR,SKC,0.00,0.0,WeatherDisplay:10.37,2013-12-02 11:32:00,
2013-12-02 05:37:00,60.1,58.7,29.87,SW,224,0.0,0.0,95,0.00,CLR,SKC,0.00,0.0,WeatherDisplay:10.37,2013-12-02 11:37:00,
2013-12-02 05:42:00,60.0,58.6,29.87,SW,224,0.0,0.0,95,0.00,CLR,SKC,0.00,0.0,WeatherDisplay:10.37,2013-12-02 11:42:00,
2013-12-02 05:47:00,59.9,58.5,29.87,SW,224,0.0,0.0,95,0.00,CLR,SKC,0.00,0.0,WeatherDisplay:10.37,2013-12-02 11:47:00,
2013-12-02 05:52:00,59.8,58.4,29.87,SW,224,0.0,0.0,95,0.00,CLR,SKC,0.00,0.0,WeatherDisplay:10.37,2013-12-02 11:52:00,
2013-12-02 05:57:00,59.8,58.4,29.87,SW,224,0.0,0.0,95,0.00,CLR,SKC,0.00,0.0,WeatherDisplay:10.37,2013-12-02 11:57:00,
2013-12-02 06:02:00,59.6,58.2,29.87,SW,224,0.0,0.0,95,0.00,CLR,SKC,0.00,0.0,WeatherDisplay:10.37,2013-12-02 12:02:00,
2013-12-02 06:07:00,59.5,58.1,29.87,SW,224,0.0,0.0,95,0.00,CLR,SKC,0.00,0.0,WeatherDisplay:10.37,2013-12-02 12:07:00,
2013-12-02 06:12:00,59.4,58.0,29.87,SW,224,0.0,0.0,95,0.00,CLR,SKC,0.00,0.0,WeatherDisplay:10.37,2013-12-02 12:12:00,
2013-12-02 06:17:00,59.2,57.8,29.87,SW,224,0.0,0.0,95,0.00,CLR,SKC,0.00,0.0,WeatherDisplay:10.37,2013-12-02 12:17:00,
2013-12-02 06:22:00,59.4,58.3,29.87,SW,224,0.0,0.0,96,0.00,CLR,SKC,0.00,0.0,WeatherDisplay:10.37,2013-12-02 12:22:00,
2013-12-02 06:27:00,59.4,58.0,29.87,SW,224,0.0,0.0,95,0.00,CLR,SKC,0.00,0.0,WeatherDisplay:10.37,2013-12-02 12:27:00,
2013-12-02 06:32:00,59.4,58.0,29.87,SW,224,0.0,0.0,95,0.00,CLR,SKC,0.00,0.0,WeatherDisplay:10.37,2013-12-02 12:32:00,
2013-12-02 06:37:00,59.3,57.9,29.87,SW,224,0.0,0.0,95,0.00,CLR,SKC,0.00,0.0,WeatherDisplay:10.37,2013-12-02 12:37:00,
2013-12-02 06:42:00,59.2,57.8,29.87,SW,224,0.0,0.0,95,0.00,CLR,SKC,0.00,0.0,WeatherDisplay:10.37,2013-12-02 12:42:00,
2013-12-02 06:47:00,59.3,58.2,29.87,SW,224,0.0,0.0,96,0.00,CLR,SKC,0.00,0.0,WeatherDisplay:10.37,2013-12-02 12:47:00,
2013-12-02 06:52:00,59.6,58.5,29.87,SW,224,0.0,0.0,96,0.00,CLR,SKC,0.00,0.0,WeatherDisplay:10.37,2013-12-02 12:52:00,
2013-12-02 06:57:00,59.6,58.2,29.88,SW,224,0.0,0.0,95,0.00,CLR,SKC,0.00,0.0,WeatherDisplay:10.37,2013-12-02 12:57:00,
2013-12-02 07:02:00,59.6,58.2,29.88,SW,224,0.0,0.0,95,0.00,CLR,SKC,0.00,0.0,WeatherDisplay:10.37,2013-12-02 13:02:00,
2013-12-02 07:07:00,59.6,58.2,29.88,SW,224,0.0,0.0,95,0.00,CLR,SKC,0.00,5.0,WeatherDisplay:10.37,2013-12-02 13:07:00,
2013-12-02 07:12:00,59.8,58.7,29.87,SSW,206,0.0,0.0,96,0.00,CLR,SKC,0.00,9.0,WeatherDisplay:10.37,2013-12-02 13:12:00,
2013-12-02 07:17:00,59.9,58.8,29.87,SSW,201,0.0,0.0,96,0.00,CLR,SKC,0.00,12.0,WeatherDisplay:10.37,2013-12-02 13:17:00,
2013-12-02 07:22:00,59.9,58.8,29.87,SSW,201,0.0,0.0,96,0.00,CLR,SKC,0.00,14.0,WeatherDisplay:10.37,2013-12-02 13:22:00,
2013-12-02 07:27:00,60.0,58.9,29.87,SSW,201,0.0,0.0,96,0.00,CLR,SKC,0.00,18.0,WeatherDisplay:10.37,2013-12-02 13:27:00,
2013-12-02 07:32:00,60.1,59.0,29.87,SSW,201,0.0,0.0,96,0.00,CLR,SKC,0.00,39.0,WeatherDisplay:10.37,2013-12-02 13:32:00,
2013-12-02 07:37:00,60.2,59.1,29.87,SSW,201,0.0,0.0,96,0.00,CLR,SKC,0.00,49.0,WeatherDisplay:10.37,2013-12-02 13:37:00,
2013-12-02 07:42:00,60.3,59.2,29.87,SSW,201,0.0,0.0,96,0.00,CLR,SKC,0.00,62.0,WeatherDisplay:10.37,2013-12-02 13:42:00,
2013-12-02 07:47:00,60.4,59.3,29.87,SSW,201,0.0,0.0,96,0.00,CLR,SKC,0.00,70.0,WeatherDisplay:10.37,2013-12-02 13:47:00,
2013-12-02 07:52:00,60.4,59.3,29.87,SSW,201,0.0,0.0,96,0.00,CLR,SKC,0.00,93.0,WeatherDisplay:10.37,2013-12-02 13:52:00,
2013-12-02 07:57:00,60.5,59.4,29.87,SSW,201,0.0,0.0,96,0.00,CLR,SKC,0.00,111.0,WeatherDisplay:10.37,2013-12-02 13:57:00,
2013-12-02 08:02:00,60.7,59.6,29.87,SSW,201,0.0,0.0,96,0.00,CLR,SKC,0.00,128.0,WeatherDisplay:10.37,2013-12-02 14:02:00,
2013-12-02 08:07:00,61.1,60.0,29.87,SSW,201,0.0,0.0,96,0.00,CLR,SKC,0.00,149.0,WeatherDisplay:10.37,2013-12-02 14:07:00,
2013-12-02 08:12:00,61.4,60.2,29.87,SSW,201,0.0,0.0,96,0.00,CLR,SKC,0.00,172.0,WeatherDisplay:10.37,2013-12-02 14:12:00,
2013-12-02 08:17:00,61.8,60.6,29.87,South,184,1.2,1.2,96,0.00,CLR,SKC,0.00,200.0,WeatherDisplay:10.37,2013-12-02 14:17:00,
2013-12-02 08:22:00,62.0,60.8,29.87,SSW,212,1.2,0.0,96,0.00,CLR,SKC,0.00,172.0,WeatherDisplay:10.37,2013-12-02 14:22:00,
2013-12-02 08:27:00,62.3,61.1,29.87,South,188,2.3,2.3,96,0.00,CLR,SKC,0.00,221.0,WeatherDisplay:10.37,2013-12-02 14:27:00,
2013-12-02 08:32:00,62.8,61.6,29.87,SW,221,1.2,1.2,96,0.00,CLR,SKC,0.00,172.0,WeatherDisplay:10.37,2013-12-02 14:32:00,
2013-12-02 08:37:00,63.1,61.9,29.87,SSW,205,2.0,2.0,96,0.00,CLR,SKC,0.00,128.0,WeatherDisplay:10.37,2013-12-02 14:37:00,
2013-12-02 08:42:00,63.4,62.2,29.87,South,190,3.5,3.5,96,0.00,CLR,SKC,0.00,116.0,WeatherDisplay:10.37,2013-12-02 14:42:00,
2013-12-02 08:47:00,63.7,62.5,29.87,South,177,3.5,3.5,96,0.00,CLR,SKC,0.00,318.0,WeatherDisplay:10.37,2013-12-02 14:47:00,
2013-12-02 08:52:00,64.0,62.8,29.87,NNE,30,2.3,2.3,96,0.00,CLR,SKC,0.00,109.0,WeatherDisplay:10.37,2013-12-02 14:52:00,
2013-12-02 08:57:00,64.1,62.9,29.87,SW,215,3.5,3.5,96,0.00,CLR,SKC,0.00,118.0,WeatherDisplay:10.37,2013-12-02 14:57:00,
2013-12-02 09:02:00,64.2,63.0,29.87,SSW,202,4.6,4.6,96,0.00,CLR,SKC,0.00,118.0,WeatherDisplay:10.37,2013-12-02 15:02:00,
2013-12-02 09:07:00,64.3,63.1,29.87,WSW,244,4.6,4.6,96,0.00,CLR,SKC,0.00,408.0,WeatherDisplay:10.37,2013-12-02 15:07:00,
2013-12-02 09:12:00,64.4,63.2,29.87,SW,214,3.5,3.5,96,0.00,CLR,SKC,0.00,109.0,WeatherDisplay:10.37,2013-12-02 15:12:00,
2013-12-02 09:17:00,64.4,63.2,29.87,WSW,254,4.6,4.6,96,0.00,CLR,SKC,0.00,309.0,WeatherDisplay:10.37,2013-12-02 15:17:00,
2013-12-02 09:22:00,64.4,63.2,29.87,SW,217,3.5,3.5,96,0.00,CLR,SKC,0.00,411.0,WeatherDisplay:10.37,2013-12-02 15:22:00,
2013-12-02 09:27:00,64.3,62.8,29.88,WSW,249,4.6,4.6,95,0.00,CLR,SKC,0.00,429.0,WeatherDisplay:10.37,2013-12-02 15:27:00,
2013-12-02 09:32:00,64.2,62.7,29.88,WSW,258,3.5,3.5,95,0.00,CLR,SKC,0.00,401.0,WeatherDisplay:10.37,2013-12-02 15:32:00,
2013-12-02 09:37:00,64.0,62.5,29.88,WSW,239,3.5,3.5,95,0.00,CLR,SKC,0.00,485.0,WeatherDisplay:10.37,2013-12-02 15:37:00,
2013-12-02 09:42:00,63.8,62.3,29.88,WSW,243,5.8,5.8,95,0.00,CLR,SKC,0.00,431.0,WeatherDisplay:10.37,2013-12-02 15:42:00,
2013-12-02 09:47:00,63.8,62.3,29.88,WSW,250,3.5,3.5,95,0.00,CLR,SKC,0.00,323.0,WeatherDisplay:10.37,2013-12-02 15:47:00,
2013-12-02 09:52:00,63.9,62.4,29.88,WSW,237,3.5,3.5,95,0.00,CLR,SKC,0.00,487.0,WeatherDisplay:10.37,2013-12-02 15:52:00,
2013-12-02 09:57:00,64.1,62.6,29.88,WSW,245,3.5,3.5,95,0.00,CLR,SKC,0.00,492.0,WeatherDisplay:10.37,2013-12-02 15:57:00,
2013-12-02 10:02:00,64.3,62.8,29.88,SW,225,5.8,5.8,95,0.00,CLR,SKC,0.00,501.0,WeatherDisplay:10.37,2013-12-02 16:02:00,
2013-12-02 10:07:00,64.6,63.1,29.88,SW,221,3.5,3.5,95,0.00,CLR,SKC,0.00,513.0,WeatherDisplay:10.37,2013-12-02 16:07:00,
2013-12-02 10:12:00,64.9,63.4,29.88,SSE,150,3.5,3.5,95,0.00,CLR,SKC,0.00,526.0,WeatherDisplay:10.37,2013-12-02 16:12:00,
2013-12-02 10:17:00,65.3,63.8,29.88,SSW,199,4.6,4.6,95,0.00,CLR,SKC,0.00,534.0,WeatherDisplay:10.37,2013-12-02 16:17:00,
2013-12-02 10:22:00,65.7,64.2,29.88,SSE,165,3.5,3.5,95,0.00,CLR,SKC,0.00,550.0,WeatherDisplay:10.37,2013-12-02 16:22:00,
2013-12-02 10:27:00,66.1,64.3,29.88,WSW,256,3.5,3.5,94,0.00,CLR,SKC,0.00,550.0,WeatherDisplay:10.37,2013-12-02 16:27:00,
2013-12-02 10:32:00,66.4,64.6,29.88,WSW,243,6.0,6.0,94,0.00,CLR,SKC,0.00,473.0,WeatherDisplay:10.37,2013-12-02 16:32:00,
2013-12-02 10:37:00,66.6,64.5,29.88,South,169,3.5,3.5,93,0.00,CLR,SKC,0.00,557.0,WeatherDisplay:10.37,2013-12-02 16:37:00,
2013-12-02 10:42:00,66.9,64.8,29.87,WSW,252,3.5,3.5,93,0.00,CLR,SKC,0.00,589.0,WeatherDisplay:10.37,2013-12-02 16:42:00,
2013-12-02 10:47:00,67.1,64.7,29.87,SW,228,6.0,6.0,92,0.00,CLR,SKC,0.00,501.0,WeatherDisplay:10.37,2013-12-02 16:47:00,
2013-12-02 10:52:00,67.3,64.9,29.87,SSW,194,3.5,3.5,92,0.00,CLR,SKC,0.00,436.0,WeatherDisplay:10.37,2013-12-02 16:52:00,
2013-12-02 10:57:00,67.7,65.0,29.87,SW,215,3.5,3.5,91,0.00,CLR,SKC,0.00,675.0,WeatherDisplay:10.37,2013-12-02 16:57:00,
2013-12-02 11:02:00,68.1,65.1,29.87,WSW,247,4.6,4.6,90,0.00,CLR,SKC,0.00,671.0,WeatherDisplay:10.37,2013-12-02 17:02:00,
2013-12-02 11:07:00,68.4,65.0,29.87,ENE,65,4.6,4.6,89,0.00,CLR,SKC,0.00,448.0,WeatherDisplay:10.37,2013-12-02 17:07:00,
2013-12-02 11:12:00,68.6,64.9,29.86,WSW,249,3.5,3.5,88,0.00,CLR,SKC,0.00,352.0,WeatherDisplay:10.37,2013-12-02 17:12:00,
2013-12-02 11:17:00,68.8,65.1,29.86,SW,228,3.5,3.5,88,0.00,CLR,SKC,0.00,436.0,WeatherDisplay:10.37,2013-12-02 17:17:00,
2013-12-02 11:22:00,69.0,65.0,29.86,SW,214,2.3,2.3,87,0.00,CLR,SKC,0.00,462.0,WeatherDisplay:10.37,2013-12-02 17:22:00,
2013-12-02 11:27:00,69.5,65.5,29.85,WSW,244,4.0,4.0,87,0.00,CLR,SKC,0.00,738.0,WeatherDisplay:10.37,2013-12-02 17:27:00,
2013-12-02 11:32:00,69.9,65.5,29.85,WSW,244,6.9,6.9,86,0.00,CLR,SKC,0.00,624.0,WeatherDisplay:10.37,2013-12-02 17:32:00,
2013-12-02 11:37:00,70.0,65.3,29.85,WSW,243,5.8,5.8,85,0.00,CLR,SKC,0.00,490.0,WeatherDisplay:10.37,2013-12-02 17:37:00,
2013-12-02 11:42:00,70.1,65.0,29.85,SW,215,3.5,3.5,84,0.00,CLR,SKC,0.00,432.0,WeatherDisplay:10.37,2013-12-02 17:42:00,
2013-12-02 11:47:00,70.3,65.2,29.85,West,271,4.6,4.6,84,0.00,CLR,SKC,0.00,589.0,WeatherDisplay:10.37,2013-12-02 17:47:00,
2013-12-02 11:52:00,70.4,65.3,29.85,SW,226,3.5,3.5,84,0.00,CLR,SKC,0.00,353.0,WeatherDisplay:10.37,2013-12-02 17:52:00,
2013-12-02 11:57:00,70.5,65.1,29.84,SW,236,6.9,6.9,83,0.00,CLR,SKC,0.00,315.0,WeatherDisplay:10.37,2013-12-02 17:57:00,
2013-12-02 12:02:00,70.6,65.2,29.84,SSW,210,3.5,3.5,83,0.00,CLR,SKC,0.00,241.0,WeatherDisplay:10.37,2013-12-02 18:02:00,
2013-12-02 12:07:00,71.0,65.2,29.84,WSW,240,3.5,3.5,82,0.00,CLR,SKC,0.00,675.0,WeatherDisplay:10.37,2013-12-02 18:07:00,
2013-12-02 12:12:00,71.4,65.3,29.82,West,263,5.8,5.8,81,0.00,CLR,SKC,0.00,668.0,WeatherDisplay:10.37,2013-12-02 18:12:00,
2013-12-02 12:17:00,71.5,65.4,29.82,SW,225,3.5,3.5,81,0.00,CLR,SKC,0.00,664.0,WeatherDisplay:10.37,2013-12-02 18:17:00,
2013-12-02 12:22:00,72.0,65.5,29.82,WSW,257,4.6,4.6,80,0.00,CLR,SKC,0.00,671.0,WeatherDisplay:10.37,2013-12-02 18:22:00,
2013-12-02 12:27:00,72.4,65.5,29.82,SSW,213,4.6,4.6,79,0.00,CLR,SKC,0.00,700.0,WeatherDisplay:10.37,2013-12-02 18:27:00,
2013-12-02 12:32:00,72.8,65.5,29.82,SSW,205,4.6,4.6,78,0.00,CLR,SKC,0.00,691.0,WeatherDisplay:10.37,2013-12-02 18:32:00,
2013-12-02 12:37:00,73.2,65.6,29.82,SW,217,2.3,2.3,77,0.00,CLR,SKC,0.00,772.0,WeatherDisplay:10.37,2013-12-02 18:37:00,
2013-12-02 12:42:00,73.5,65.5,29.81,East,100,2.3,2.3,76,0.00,CLR,SKC,0.00,796.0,WeatherDisplay:10.37,2013-12-02 18:42:00,
2013-12-02 12:47:00,73.6,65.6,29.81,SW,227,3.5,3.5,76,0.00,CLR,SKC,0.00,677.0,WeatherDisplay:10.37,2013-12-02 18:47:00,
2013-12-02 12:52:00,73.7,65.3,29.81,SSW,195,5.0,5.0,75,0.00,CLR,SKC,0.00,712.0,WeatherDisplay:10.37,2013-12-02 18:52:00,
2013-12-02 12:57:00,73.9,65.5,29.79,West,259,3.5,3.5,75,0.00,CLR,SKC,0.00,308.0,WeatherDisplay:10.37,2013-12-02 18:57:00,
2013-12-02 13:02:00,73.8,65.0,29.79,WSW,249,4.6,4.6,74,0.00,CLR,SKC,0.00,387.0,WeatherDisplay:10.37,2013-12-02 19:02:00,
2013-12-02 13:07:00,73.6,65.2,29.79,SSE,165,2.3,2.3,75,0.00,CLR,SKC,0.00,279.0,WeatherDisplay:10.37,2013-12-02 19:07:00,
2013-12-02 13:12:00,73.5,65.1,29.79,SE,144,1.2,1.2,75,0.00,CLR,SKC,0.00,443.0,WeatherDisplay:10.37,2013-12-02 19:12:00,
2013-12-02 13:17:00,73.5,65.1,29.79,WSW,256,2.3,2.3,75,0.00,CLR,SKC,0.00,543.0,WeatherDisplay:10.37,2013-12-02 19:17:00,
2013-12-02 13:22:00,73.7,65.3,29.79,SE,128,2.3,2.3,75,0.00,CLR,SKC,0.00,504.0,WeatherDisplay:10.37,2013-12-02 19:22:00,
2013-12-02 13:27:00,74.0,65.6,29.78,South,184,2.3,2.3,75,0.00,CLR,SKC,0.00,492.0,WeatherDisplay:10.37,2013-12-02 19:27:00,
2013-12-02 13:32:00,73.8,65.4,29.78,SE,138,3.5,3.5,75,0.00,CLR,SKC,0.00,422.0,WeatherDisplay:10.37,2013-12-02 19:32:00,
2013-12-02 13:37:00,73.5,65.1,29.78,ESE,104,3.5,3.5,75,0.00,CLR,SKC,0.00,406.0,WeatherDisplay:10.37,2013-12-02 19:37:00,
2013-12-02 13:42:00,73.3,64.9,29.78,ESE,122,6.9,6.9,75,0.00,CLR,SKC,0.00,362.0,WeatherDisplay:10.37,2013-12-02 19:42:00,
2013-12-02 13:47:00,72.8,64.8,29.78,SSW,211,4.0,4.0,76,0.00,CLR,SKC,0.00,585.0,WeatherDisplay:10.37,2013-12-02 19:47:00,
2013-12-02 13:52:00,73.0,65.4,29.78,SE,130,4.6,4.6,77,0.00,CLR,SKC,0.00,613.0,WeatherDisplay:10.37,2013-12-02 19:52:00,
2013-12-02 13:57:00,73.0,65.0,29.76,ESE,114,4.6,4.6,76,0.00,CLR,SKC,0.00,566.0,WeatherDisplay:10.37,2013-12-02 19:57:00,
2013-12-02 14:02:00,72.8,65.2,29.76,ESE,110,4.6,4.6,77,0.00,CLR,SKC,0.00,552.0,WeatherDisplay:10.37,2013-12-02 20:02:00,
2013-12-02 14:07:00,72.9,65.3,29.76,SE,144,5.8,5.8,77,0.00,CLR,SKC,0.00,557.0,WeatherDisplay:10.37,2013-12-02 20:07:00,
2013-12-02 14:12:00,72.9,65.3,29.76,SE,143,7.0,7.0,77,0.00,CLR,SKC,0.00,559.0,WeatherDisplay:10.37,2013-12-02 20:12:00,
2013-12-02 14:17:00,72.8,65.2,29.76,SE,132,10.4,10.4,77,0.00,CLR,SKC,0.00,536.0,WeatherDisplay:10.37,2013-12-02 20:17:00,
2013-12-02 14:22:00,72.8,65.2,29.76,SSE,150,10.4,10.4,77,0.00,CLR,SKC,0.00,533.0,WeatherDisplay:10.37,2013-12-02 20:22:00,
2013-12-02 14:27:00,72.8,64.8,29.75,SSE,163,4.6,4.6,76,0.00,CLR,SKC,0.00,522.0,WeatherDisplay:10.37,2013-12-02 20:27:00,
2013-12-02 14:32:00,72.7,64.7,29.75,ESE,116,9.2,9.2,76,0.00,CLR,SKC,0.00,538.0,WeatherDisplay:10.37,2013-12-02 20:32:00,
2013-12-02 14:37:00,72.5,64.5,29.75,SSE,155,10.4,10.4,76,0.00,CLR,SKC,0.00,513.0,WeatherDisplay:10.37,2013-12-02 20:37:00,
2013-12-02 14:42:00,72.2,64.6,29.74,SE,126,11.5,11.5,77,0.00,CLR,SKC,0.00,499.0,WeatherDisplay:10.37,2013-12-02 20:42:00,
2013-12-02 14:47:00,72.0,64.4,29.74,ESE,109,4.6,4.6,77,0.00,CLR,SKC,0.00,497.0,WeatherDisplay:10.37,2013-12-02 20:47:00,
2013-12-02 14:52:00,71.7,64.1,29.74,SE,140,10.4,10.4,77,0.00,CLR,SKC,0.00,343.0,WeatherDisplay:10.37,2013-12-02 20:52:00,
2013-12-02 14:57:00,71.5,64.3,29.73,NE,42,4.6,4.6,78,0.00,CLR,SKC,0.00,466.0,WeatherDisplay:10.37,2013-12-02 20:57:00,
2013-12-02 15:02:00,71.4,64.2,29.73,SE,142,4.6,4.6,78,0.00,CLR,SKC,0.00,309.0,WeatherDisplay:10.37,2013-12-02 21:02:00,
2013-12-02 15:07:00,71.3,64.1,29.73,SSE,162,6.9,6.9,78,0.00,CLR,SKC,0.00,239.0,WeatherDisplay:10.37,2013-12-02 21:07:00,
2013-12-02 15:12:00,71.0,64.2,29.73,SSE,150,4.6,4.6,79,0.00,CLR,SKC,0.00,281.0,WeatherDisplay:10.37,2013-12-02 21:12:00,
2013-12-02 15:17:00,70.7,63.9,29.73,SSE,155,3.5,3.5,79,0.00,CLR,SKC,0.00,232.0,WeatherDisplay:10.37,2013-12-02 21:17:00,
2013-12-02 15:22:00,70.5,64.0,29.73,SE,146,4.6,4.6,80,0.00,CLR,SKC,0.00,176.0,WeatherDisplay:10.37,2013-12-02 21:22:00,
2013-12-02 15:27:00,70.4,63.9,29.72,SE,146,9.2,9.2,80,0.00,CLR,SKC,0.00,135.0,WeatherDisplay:10.37,2013-12-02 21:27:00,
2013-12-02 15:32:00,70.2,63.7,29.72,SSE,148,5.8,5.8,80,0.00,CLR,SKC,0.00,139.0,WeatherDisplay:10.37,2013-12-02 21:32:00,
2013-12-02 15:37:00,70.0,63.5,29.72,SSE,160,5.8,5.8,80,0.00,CLR,SKC,0.00,116.0,WeatherDisplay:10.37,2013-12-02 21:37:00,
2013-12-02 15:42:00,69.6,63.5,29.71,South,186,6.9,6.9,81,0.00,CLR,SKC,0.00,135.0,WeatherDisplay:10.37,2013-12-02 21:42:00,
2013-12-02 15:47:00,69.2,63.5,29.71,South,174,6.9,6.9,82,0.00,CLR,SKC,0.00,113.0,WeatherDisplay:10.37,2013-12-02 21:47:00,
2013-12-02 15:52:00,69.2,63.5,29.71,South,179,6.9,6.9,82,0.00,CLR,SKC,0.00,186.0,WeatherDisplay:10.37,2013-12-02 21:52:00,
2013-12-02 15:57:00,69.2,63.8,29.72,SSW,206,3.5,3.5,83,0.00,CLR,SKC,0.00,128.0,WeatherDisplay:10.37,2013-12-02 21:57:00,
2013-12-02 16:02:00,69.2,63.8,29.72,South,174,6.9,6.9,83,0.00,CLR,SKC,0.00,141.0,WeatherDisplay:10.37,2013-12-02 22:02:00,
2013-12-02 16:07:00,69.1,63.7,29.72,South,171,5.0,5.0,83,0.00,CLR,SKC,0.00,128.0,WeatherDisplay:10.37,2013-12-02 22:07:00,
2013-12-02 16:12:00,69.0,63.6,29.72,South,186,5.8,5.8,83,0.00,CLR,SKC,0.00,56.0,WeatherDisplay:10.37,2013-12-02 22:12:00,
2013-12-02 16:17:00,68.8,63.8,29.72,SE,138,5.8,5.8,84,0.00,CLR,SKC,0.00,56.0,WeatherDisplay:10.37,2013-12-02 22:17:00,
2013-12-02 16:22:00,68.6,63.6,29.72,SE,142,4.6,4.6,84,0.00,CLR,SKC,0.00,49.0,WeatherDisplay:10.37,2013-12-02 22:22:00,
2013-12-02 16:27:00,68.5,63.8,29.72,ESE,122,3.5,3.5,85,0.00,CLR,SKC,0.00,49.0,WeatherDisplay:10.37,2013-12-02 22:27:00,
2013-12-02 16:32:00,68.4,63.7,29.72,SE,136,5.0,5.0,85,0.00,CLR,SKC,0.00,46.0,WeatherDisplay:10.37,2013-12-02 22:32:00,
2013-12-02 16:37:00,68.4,63.7,29.72,SSW,193,5.8,5.8,85,0.00,CLR,SKC,0.00,47.0,WeatherDisplay:10.37,2013-12-02 22:37:00,
2013-12-02 16:42:00,68.6,63.9,29.72,SSE,160,4.6,4.6,85,0.00,CLR,SKC,0.00,51.0,WeatherDisplay:10.37,2013-12-02 22:42:00,
2013-12-02 16:47:00,68.8,64.1,29.72,East,97,5.8,5.8,85,0.00,CLR,SKC,0.00,46.0,WeatherDisplay:10.37,2013-12-02 22:47:00,
2013-12-02 16:52:00,68.8,64.1,29.72,ESE,115,4.6,4.6,85,0.00,CLR,SKC,0.00,37.0,WeatherDisplay:10.37,2013-12-02 22:52:00,
2013-12-02 16:57:00,68.8,64.1,29.73,SSE,163,4.6,4.6,85,0.00,CLR,SKC,0.00,30.0,WeatherDisplay:10.37,2013-12-02 22:57:00,
2013-12-02 17:02:00,68.8,63.8,29.73,SSE,161,4.6,4.6,84,0.00,CLR,SKC,0.00,25.0,WeatherDisplay:10.37,2013-12-02 23:02:00,
2013-12-02 17:07:00,68.6,63.9,29.73,SSE,154,7.0,7.0,85,0.00,CLR,SKC,0.00,21.0,WeatherDisplay:10.37,2013-12-02 23:07:00,
2013-12-02 17:12:00,68.3,63.6,29.72,ESE,114,4.0,4.0,85,0.00,CLR,SKC,0.00,19.0,WeatherDisplay:10.37,2013-12-02 23:12:00,
2013-12-02 17:17:00,68.1,63.4,29.72,SSE,167,5.8,5.8,85,0.00,CLR,SKC,0.00,16.0,WeatherDisplay:10.37,2013-12-02 23:17:00,
2013-12-02 17:22:00,67.7,63.4,29.72,SSE,161,4.6,4.6,86,0.00,CLR,SKC,0.00,11.0,WeatherDisplay:10.37,2013-12-02 23:22:00,
2013-12-02 17:27:00,67.5,63.2,29.73,ESE,103,4.6,4.6,86,0.00,CLR,SKC,0.00,9.0,WeatherDisplay:10.37,2013-12-02 23:27:00,
2013-12-02 17:32:00,67.2,63.2,29.73,South,171,6.9,6.9,87,0.00,CLR,SKC,0.00,5.0,WeatherDisplay:10.37,2013-12-02 23:32:00,
2013-12-02 17:37:00,67.0,63.0,29.73,SSE,149,4.6,4.6,87,0.00,CLR,SKC,0.00,0.0,WeatherDisplay:10.37,2013-12-02 23:37:00,
2013-12-02 17:42:00,66.8,62.8,29.72,SSE,154,9.2,9.2,87,0.00,CLR,SKC,0.00,0.0,WeatherDisplay:10.37,2013-12-02 23:42:00,
2013-12-02 17:47:00,66.7,63.0,29.72,SE,140,4.6,4.6,88,0.00,CLR,SKC,0.00,0.0,WeatherDisplay:10.37,2013-12-02 23:47:00,
2013-12-02 17:52:00,66.6,62.9,29.72,South,179,6.0,6.0,88,0.00,CLR,SKC,0.00,0.0,WeatherDisplay:10.37,2013-12-02 23:52:00,
2013-12-02 17:57:00,66.5,62.8,29.72,East,96,5.0,5.0,88,0.00,CLR,SKC,0.00,0.0,WeatherDisplay:10.37,2013-12-02 23:57:00,
2013-12-02 18:02:00,66.5,62.8,29.72,ESE,119,5.8,5.8,88,0.00,CLR,SKC,0.00,0.0,WeatherDisplay:10.37,2013-12-03 00:02:00,
2013-12-02 18:07:00,66.4,63.1,29.72,South,188,10.4,10.4,89,0.00,CLR,SKC,0.00,0.0,WeatherDisplay:10.37,2013-12-03 00:07:00,
2013-12-02 18:12:00,66.3,63.0,29.72,SE,134,9.2,9.2,89,0.00,CLR,SKC,0.00,0.0,WeatherDisplay:10.37,2013-12-03 00:12:00,
2013-12-02 18:17:00,66.3,63.0,29.72,South,184,5.8,5.8,89,0.00,CLR,SKC,0.00,0.0,WeatherDisplay:10.37,2013-12-03 00:17:00,
2013-12-02 18:22:00,66.3,63.0,29.72,SE,134,4.0,4.0,89,0.00,CLR,SKC,0.00,0.0,WeatherDisplay:10.37,2013-12-03 00:22:00,
2013-12-02 18:27:00,66.3,63.0,29.72,ESE,115,8.1,8.1,89,0.00,CLR,SKC,0.00,0.0,WeatherDisplay:10.37,2013-12-03 00:27:00,
2013-12-02 18:32:00,66.2,62.9,29.72,South,190,6.9,6.9,89,0.00,CLR,SKC,0.00,0.0,WeatherDisplay:10.37,2013-12-03 00:32:00,
2013-12-02 18:37:00,66.1,62.8,29.72,SSE,155,3.5,3.5,89,0.00,CLR,SKC,0.00,0.0,WeatherDisplay:10.37,2013-12-03 00:37:00,
2013-12-02 18:42:00,66.1,62.8,29.72,SE,136,4.6,4.6,89,0.00,CLR,SKC,0.00,0.0,WeatherDisplay:10.37,2013-12-03 00:42:00,
2013-12-02 18:47:00,66.0,62.7,29.72,SSE,157,11.5,11.5,89,0.00,CLR,SKC,0.00,0.0,WeatherDisplay:10.37,2013-12-03 00:47:00,
2013-12-02 18:52:00,65.9,62.6,29.72,SSW,198,5.8,5.8,89,0.00,CLR,SKC,0.00,0.0,WeatherDisplay:10.37,2013-12-03 00:52:00,
2013-12-02 18:57:00,65.9,62.6,29.71,SSW,206,7.0,7.0,89,0.00,CLR,SKC,0.00,0.0,WeatherDisplay:10.37,2013-12-03 00:57:00,
2013-12-02 19:02:00,65.9,62.6,29.71,South,171,4.6,4.6,89,0.00,CLR,SKC,0.00,0.0,WeatherDisplay:10.37,2013-12-03 01:02:00,
2013-12-02 19:07:00,65.9,62.6,29.71,WSW,248,6.9,6.9,89,0.00,CLR,SKC,0.00,0.0,WeatherDisplay:10.37,2013-12-03 01:07:00,
2013-12-02 19:12:00,65.9,62.6,29.72,SSE,152,5.0,5.0,89,0.00,CLR,SKC,0.00,0.0,WeatherDisplay:10.37,2013-12-03 01:12:00,
2013-12-02 19:17:00,65.9,62.6,29.72,SE,143,9.2,9.2,89,0.00,CLR,SKC,0.00,0.0,WeatherDisplay:10.37,2013-12-03 01:17:00,
2013-12-02 19:22:00,65.9,62.6,29.72,South,175,5.8,5.8,89,0.00,CLR,SKC,0.00,0.0,WeatherDisplay:10.37,2013-12-03 01:22:00,
2013-12-02 19:27:00,65.9,62.6,29.72,SE,137,4.0,4.0,89,0.00,CLR,SKC,0.00,0.0,WeatherDisplay:10.37,2013-12-03 01:27:00,
2013-12-02 19:32:00,65.8,62.5,29.72,SSW,192,4.0,4.0,89,0.00,CLR,SKC,0.00,0.0,WeatherDisplay:10.37,2013-12-03 01:32:00,
2013-12-02 19:37:00,65.7,62.4,29.72,SSE,161,5.0,5.0,89,0.00,CLR,SKC,0.00,0.0,WeatherDisplay:10.37,2013-12-03 01:37:00,
2013-12-02 19:42:00,65.7,62.4,29.72,SSE,167,4.6,4.6,89,0.00,CLR,SKC,0.00,0.0,WeatherDisplay:10.37,2013-12-03 01:42:00,
2013-12-02 19:47:00,65.6,62.6,29.72,SE,132,3.5,3.5,90,0.00,CLR,SKC,0.00,0.0,WeatherDisplay:10.37,2013-12-03 01:47:00,
2013-12-02 19:52:00,65.6,62.6,29.72,South,174,3.5,3.5,90,0.00,CLR,SKC,0.00,0.0,WeatherDisplay:10.37,2013-12-03 01:52:00,
2013-12-02 19:57:00,65.5,62.5,29.73,SSW,192,4.6,4.6,90,0.00,CLR,SKC,0.00,0.0,WeatherDisplay:10.37,2013-12-03 01:57:00,
2013-12-02 20:02:00,65.4,62.4,29.73,ENE,65,5.8,5.8,90,0.00,CLR,SKC,0.00,0.0,WeatherDisplay:10.37,2013-12-03 02:02:00,
2013-12-02 20:07:00,65.4,62.4,29.73,ESE,114,5.8,5.8,90,0.00,CLR,SKC,0.00,0.0,WeatherDisplay:10.37,2013-12-03 02:07:00,
2013-12-02 20:12:00,65.4,62.4,29.73,SSE,158,4.0,4.0,90,0.00,CLR,SKC,0.00,0.0,WeatherDisplay:10.37,2013-12-03 02:12:00,
2013-12-02 20:17:00,65.3,62.3,29.73,SE,126,4.6,4.6,90,0.00,CLR,SKC,0.00,0.0,WeatherDisplay:10.37,2013-12-03 02:17:00,
2013-12-02 20:22:00,65.3,62.3,29.73,East,82,4.6,4.6,90,0.00,CLR,SKC,0.00,0.0,WeatherDisplay:10.37,2013-12-03 02:22:00,
2013-12-02 20:27:00,65.2,62.2,29.74,SW,214,3.0,3.0,90,0.00,CLR,SKC,0.00,0.0,WeatherDisplay:10.37,2013-12-03 02:27:00,
2013-12-02 20:32:00,65.2,62.5,29.74,East,94,4.6,4.6,91,0.00,CLR,SKC,0.00,0.0,WeatherDisplay:10.37,2013-12-03 02:32:00,
2013-12-02 20:37:00,65.2,62.5,29.74,WSW,248,1.2,1.2,91,0.00,CLR,SKC,0.00,0.0,WeatherDisplay:10.37,2013-12-03 02:37:00,
2013-12-02 20:42:00,65.2,62.5,29.74,SSW,193,3.5,3.5,91,0.00,CLR,SKC,0.00,0.0,WeatherDisplay:10.37,2013-12-03 02:42:00,
2013-12-02 20:47:00,65.2,62.5,29.74,SSW,208,3.5,3.5,91,0.00,CLR,SKC,0.00,0.0,WeatherDisplay:10.37,2013-12-03 02:47:00,
2013-12-02 20:52:00,65.3,62.6,29.74,ESE,117,5.8,5.8,91,0.00,CLR,SKC,0.00,0.0,WeatherDisplay:10.37,2013-12-03 02:52:00,
2013-12-02 20:57:00,65.3,62.6,29.73,SSE,163,9.2,9.2,91,0.00,CLR,SKC,0.00,0.0,WeatherDisplay:10.37,2013-12-03 02:57:00,
2013-12-02 21:02:00,65.3,62.6,29.73,SE,140,4.6,4.6,91,0.00,CLR,SKC,0.00,0.0,WeatherDisplay:10.37,2013-12-03 03:02:00,
2013-12-02 21:07:00,65.3,62.6,29.73,SE,126,2.3,2.3,91,0.00,CLR,SKC,0.00,0.0,WeatherDisplay:10.37,2013-12-03 03:07:00,
2013-12-02 21:12:00,65.3,62.6,29.75,SSW,197,3.5,3.5,91,0.00,CLR,SKC,0.00,0.0,WeatherDisplay:10.37,2013-12-03 03:12:00,
2013-12-02 21:17:00,65.3,62.6,29.75,South,172,6.9,6.9,91,0.00,CLR,SKC,0.00,0.0,WeatherDisplay:10.37,2013-12-03 03:17:00,
2013-12-02 21:22:00,65.2,62.5,29.75,WSW,247,3.5,3.5,91,0.00,CLR,SKC,0.00,0.0,WeatherDisplay:10.37,2013-12-03 03:22:00,
2013-12-02 21:27:00,65.2,62.5,29.75,WSW,254,3.5,3.5,91,0.00,CLR,SKC,0.00,0.0,WeatherDisplay:10.37,2013-12-03 03:27:00,
2013-12-02 21:32:00,65.1,62.4,29.75,South,179,3.5,3.5,91,0.00,CLR,SKC,0.00,0.0,WeatherDisplay:10.37,2013-12-03 03:32:00,
2013-12-02 21:37:00,65.0,62.3,29.75,SE,137,9.2,9.2,91,0.00,CLR,SKC,0.00,0.0,WeatherDisplay:10.37,2013-12-03 03:37:00,
2013-12-02 21:42:00,64.9,62.2,29.75,SE,141,4.6,4.6,91,0.00,CLR,SKC,0.00,0.0,WeatherDisplay:10.37,2013-12-03 03:42:00,
2013-12-02 21:47:00,64.8,62.1,29.75,South,170,2.3,2.3,91,0.00,CLR,SKC,0.00,0.0,WeatherDisplay:10.37,2013-12-03 03:47:00,
2013-12-02 21:52:00,64.7,62.3,29.75,ESE,103,2.3,2.3,92,0.00,CLR,SKC,0.00,0.0,WeatherDisplay:10.37,2013-12-03 03:52:00,
2013-12-02 21:57:00,64.6,62.2,29.74,SSE,153,7.0,7.0,92,0.00,CLR,SKC,0.00,0.0,WeatherDisplay:10.37,2013-12-03 03:57:00,
2013-12-02 22:02:00,64.5,62.1,29.74,SW,234,3.5,3.5,92,0.00,CLR,SKC,0.00,0.0,WeatherDisplay:10.37,2013-12-03 04:02:00,
2013-12-02 22:07:00,64.4,62.0,29.74,SW,215,4.6,4.6,92,0.00,CLR,SKC,0.00,0.0,WeatherDisplay:10.37,2013-12-03 04:07:00,
2013-12-02 22:12:00,64.3,61.9,29.74,WNW,292,2.3,2.3,92,0.00,CLR,SKC,0.00,0.0,WeatherDisplay:10.37,2013-12-03 04:12:00,
2013-12-02 22:17:00,64.2,61.8,29.74,SSE,155,4.6,4.6,92,0.00,CLR,SKC,0.00,0.0,WeatherDisplay:10.37,2013-12-03 04:17:00,
2013-12-02 22:22:00,64.2,61.8,29.74,WSW,242,1.2,1.2,92,0.00,CLR,SKC,0.00,0.0,WeatherDisplay:10.37,2013-12-03 04:22:00,
2013-12-02 22:27:00,64.2,61.8,29.74,SSE,166,3.5,3.5,92,0.00,CLR,SKC,0.00,0.0,WeatherDisplay:10.37,2013-12-03 04:27:00,
2013-12-02 22:32:00,64.1,62.0,29.74,South,187,3.5,3.5,93,0.00,CLR,SKC,0.00,0.0,WeatherDisplay:10.37,2013-12-03 04:32:00,
2013-12-02 22:37:00,64.1,62.0,29.74,SSE,153,3.5,3.5,93,0.00,CLR,SKC,0.00,0.0,WeatherDisplay:10.37,2013-12-03 04:37:00,
2013-12-02 22:42:00,64.2,62.1,29.73,North,350,4.6,4.6,93,0.00,CLR,SKC,0.00,0.0,WeatherDisplay:10.37,2013-12-03 04:42:00,
2013-12-02 22:47:00,64.1,62.0,29.73,South,183,2.3,2.3,93,0.00,CLR,SKC,0.00,0.0,WeatherDisplay:10.37,2013-12-03 04:47:00,
2013-12-02 22:52:00,64.1,62.0,29.73,SW,236,5.8,5.8,93,0.00,CLR,SKC,0.00,0.0,WeatherDisplay:10.37,2013-12-03 04:52:00,
2013-12-02 22:57:00,64.1,62.0,29.74,WSW,238,3.5,3.5,93,0.00,CLR,SKC,0.00,0.0,WeatherDisplay:10.37,2013-12-03 04:57:00,
2013-12-02 23:01:00,64.1,62.0,29.74,WSW,250,4.0,4.0,93,0.00,CLR,SKC,0.00,0.0,WeatherDisplay:10.37,2013-12-03 05:01:00,
2013-12-02 23:06:00,64.1,62.0,29.74,SW,215,4.6,4.6,93,0.00,CLR,SKC,0.00,0.0,WeatherDisplay:10.37,2013-12-03 05:06:00,
2013-12-02 23:11:00,64.0,61.9,29.73,SSE,153,3.5,3.5,93,0.00,CLR,SKC,0.00,0.0,WeatherDisplay:10.37,2013-12-03 05:11:00,
2013-12-02 23:16:00,64.0,61.9,29.73,NNE,16,3.0,3.0,93,0.00,CLR,SKC,0.00,0.0,WeatherDisplay:10.37,2013-12-03 05:16:00,
2013-12-02 23:21:00,63.9,61.8,29.73,South,190,3.5,3.5,93,0.00,CLR,SKC,0.00,0.0,WeatherDisplay:10.37,2013-12-03 05:21:00,
2013-12-02 23:26:00,63.8,61.7,29.73,SSE,148,4.6,4.6,93,0.00,CLR,SKC,0.00,0.0,WeatherDisplay:10.37,2013-12-03 05:26:00,
2013-12-02 23:31:00,63.8,61.7,29.73,NW,324,2.3,2.3,93,0.00,CLR,SKC,0.00,0.0,WeatherDisplay:10.37,2013-12-03 05:31:00,
2013-12-02 23:36:00,63.8,61.7,29.73,East,96,5.8,5.8,93,0.00,CLR,SKC,0.00,0.0,WeatherDisplay:10.37,2013-12-03 05:36:00,
2013-12-02 23:41:00,63.6,61.5,29.72,SSW,207,5.0,5.0,93,0.00,CLR,SKC,0.00,0.0,WeatherDisplay:10.37,2013-12-03 05:41:00,
2013-12-02 23:46:00,63.6,61.5,29.72,WNW,292,6.0,6.0,93,0.00,CLR,SKC,0.00,0.0,WeatherDisplay:10.37,2013-12-03 05:46:00,
2013-12-02 23:51:00,63.5,61.4,29.72,SE,132,3.5,3.5,93,0.00,CLR,SKC,0.00,0.0,WeatherDisplay:10.37,2013-12-03 05:51:00,
2013-12-02 23:56:00,63.4,61.6,29.73,SE,141,2.3,2.3,94,0.00,CLR,SKC,0.00,0.0,WeatherDisplay:10.37,2013-12-03 05:56:00,